createdAt,value
2018-12-20T00:00:37.048Z,50.92
2018-12-20T00:03:06.281Z,36.42
2018-12-20T00:05:35.960Z,31.23
2018-12-20T00:08:04.567Z,32.38
2018-12-20T00:10:33.052Z,28.70
2018-12-20T00:13:01.430Z,28.85
2018-12-20T00:15:29.780Z,34.13
2018-12-20T00:17:58.213Z,35.23
2018-12-20T00:20:26.617Z,29.00
2018-12-20T00:22:55.780Z,36.28
2018-12-20T00:25:24.286Z,35.13
2018-12-20T00:27:52.659Z,33.33
2018-12-20T00:30:22.234Z,51.53
2018-12-20T00:32:52.234Z,40.97
2018-12-20T00:35:20.868Z,32.08
2018-12-20T00:37:50.858Z,48.90
2018-12-20T00:40:19.140Z,55.73
2018-12-20T00:42:49.052Z,33.50
2018-12-20T00:45:17.264Z,37.03
2018-12-20T00:47:47.048Z,36.88
2018-12-20T00:50:15.385Z,33.13
2018-12-20T00:52:44.848Z,31.02
2018-12-20T00:55:13.152Z,26.57
2018-12-20T00:57:42.885Z,29.33
2018-12-20T01:00:11.123Z,32.63
2018-12-20T01:02:40.888Z,33.83
2018-12-20T01:05:09.155Z,42.65
2018-12-20T01:07:39.016Z,47.75
2018-12-20T01:10:07.267Z,36.60
2018-12-20T01:12:36.907Z,35.58
2018-12-20T01:15:05.600Z,62.85
2018-12-20T01:17:38.143Z,32.40
2018-12-20T01:20:08.431Z,32.65
2018-12-20T01:22:38.826Z,34.27
2018-12-20T01:25:07.454Z,33.42
2018-12-20T01:27:37.177Z,34.05
2018-12-20T01:30:06.587Z,31.15
2018-12-20T01:32:36.512Z,42.05
2018-12-20T01:35:04.949Z,35.23
2018-12-20T01:37:34.869Z,28.40
2018-12-20T01:40:03.424Z,38.60
2018-12-20T01:42:32.933Z,26.87
2018-12-20T01:45:01.262Z,25.70
2018-12-20T01:47:31.574Z,26.20
2018-12-20T01:50:00.039Z,25.50
2018-12-20T01:52:30.294Z,50.77
2018-12-20T01:54:58.767Z,46.83
2018-12-20T01:57:28.647Z,52.25
2018-12-20T01:59:56.883Z,45.27
2018-12-20T02:02:26.556Z,24.30
2018-12-20T02:04:55.000Z,25.53
2018-12-20T02:07:23.396Z,36.20
2018-12-20T02:09:51.960Z,41.75
2018-12-20T02:12:20.533Z,26.60
2018-12-20T02:14:49.071Z,27.73
2018-12-20T02:17:17.640Z,27.50
2018-12-20T02:19:46.021Z,23.70
2018-12-20T02:22:15.750Z,24.30
2018-12-20T02:24:44.433Z,23.93
2018-12-20T02:27:14.093Z,21.70
2018-12-20T02:29:44.464Z,35.93
2018-12-20T02:32:14.820Z,20.63
2018-12-20T02:34:45.044Z,25.43
2018-12-20T02:37:15.308Z,24.10
2018-12-20T02:39:43.608Z,22.00
2018-12-20T02:42:13.509Z,37.90
2018-12-20T02:44:42.149Z,25.50
2018-12-20T02:47:11.972Z,20.90
2018-12-20T02:49:40.599Z,22.00
2018-12-20T02:52:09.040Z,21.90
2018-12-20T02:54:37.331Z,22.03
2018-12-20T02:57:05.679Z,22.17
2018-12-20T02:59:34.024Z,21.80
2018-12-20T03:02:03.792Z,21.80
2018-12-20T03:04:32.436Z,22.50
2018-12-20T03:07:01.394Z,24.27
2018-12-20T03:09:29.772Z,23.90
2018-12-20T03:11:59.298Z,25.02
2018-12-20T03:14:27.718Z,28.97
2018-12-20T03:16:56.156Z,26.33
2018-12-20T03:19:24.741Z,22.03
2018-12-20T03:21:54.453Z,23.93
2018-12-20T03:24:23.184Z,27.00
2018-12-20T03:26:51.699Z,20.50
2018-12-20T03:29:20.025Z,22.35
2018-12-20T03:31:48.361Z,27.53
2018-12-20T03:34:16.578Z,37.00
2018-12-20T03:36:44.805Z,26.83
2018-12-20T03:39:13.252Z,23.77
2018-12-20T03:41:42.783Z,31.50
2018-12-20T03:44:11.013Z,25.73
2018-12-20T03:46:40.454Z,26.20
2018-12-20T03:49:08.783Z,34.95
2018-12-20T03:51:37.278Z,30.05
2018-12-20T03:54:05.661Z,37.48
2018-12-20T03:56:34.587Z,32.80
2018-12-20T03:59:02.869Z,24.97
2018-12-20T04:01:32.917Z,30.20
2018-12-20T04:04:02.238Z,22.00
2018-12-20T04:06:32.297Z,29.40
2018-12-20T04:09:00.903Z,27.37
2018-12-20T04:11:31.750Z,27.53
2018-12-20T04:14:00.084Z,35.38
2018-12-20T04:16:28.813Z,35.23
2018-12-20T04:18:57.317Z,27.87
2018-12-20T04:21:27.384Z,27.00
2018-12-20T04:23:56.240Z,27.57
2018-12-20T04:26:24.611Z,26.20
2018-12-20T04:28:53.128Z,28.13
2018-12-20T04:31:21.320Z,42.13
2018-12-20T04:33:49.612Z,27.37
2018-12-20T04:36:19.941Z,25.53
2018-12-20T04:38:48.349Z,41.17
2018-12-20T04:41:17.419Z,24.63
2018-12-20T04:43:46.527Z,24.07
2018-12-20T04:46:16.817Z,42.07
2018-12-20T04:48:45.083Z,34.13
2018-12-20T04:51:14.852Z,40.47
2018-12-20T04:53:43.819Z,27.00
2018-12-20T04:56:14.344Z,24.40
2018-12-20T04:58:42.687Z,26.37
2018-12-20T05:01:11.390Z,27.93
2018-12-20T05:03:39.827Z,29.00
2018-12-20T05:06:08.368Z,29.77
2018-12-20T05:08:36.881Z,28.17
2018-12-20T05:11:06.902Z,25.57
2018-12-20T05:13:35.181Z,28.90
2018-12-20T05:16:03.456Z,27.70
2018-12-20T05:18:31.867Z,26.73
2018-12-20T05:21:02.416Z,28.93
2018-12-20T05:23:30.938Z,33.07
2018-12-20T05:25:59.686Z,34.33
2018-12-20T05:28:28.179Z,37.83
2018-12-20T05:30:57.012Z,33.93
2018-12-20T05:33:25.512Z,33.10
2018-12-20T05:35:55.707Z,31.93
2018-12-20T05:38:24.141Z,30.90
2018-12-20T05:40:53.797Z,31.53
2018-12-20T05:43:22.627Z,35.63
2018-12-20T05:45:50.889Z,32.27
2018-12-20T05:48:19.570Z,34.90
2018-12-20T05:50:48.557Z,33.93
2018-12-20T05:53:17.225Z,50.50
2018-12-20T05:55:45.677Z,31.48
2018-12-20T05:58:14.216Z,33.43
2018-12-20T06:00:42.945Z,39.10
2018-12-20T06:03:11.188Z,32.97
2018-12-20T06:05:40.985Z,33.50
2018-12-20T06:08:09.384Z,33.33
2018-12-20T06:10:39.004Z,36.65
2018-12-20T06:13:07.240Z,31.30
2018-12-20T06:15:37.201Z,30.87
2018-12-20T06:18:05.625Z,32.60
2018-12-20T06:20:34.027Z,30.70
2018-12-20T06:23:02.433Z,31.03
2018-12-20T06:25:30.627Z,26.63
2018-12-20T06:27:58.854Z,38.03
2018-12-20T06:30:27.062Z,32.27
2018-12-20T06:32:55.292Z,31.10
2018-12-20T06:35:24.732Z,45.27
2018-12-20T06:37:52.973Z,32.13
2018-12-20T06:40:22.602Z,31.60
2018-12-20T06:42:52.819Z,29.63
2018-12-20T06:45:21.028Z,36.77
2018-12-20T06:47:50.490Z,32.13
2018-12-20T06:50:18.697Z,37.63
2018-12-20T06:52:48.145Z,35.27
2018-12-20T06:55:16.345Z,36.10
2018-12-20T06:57:45.900Z,34.87
2018-12-20T07:00:14.106Z,38.27
2018-12-20T07:02:43.730Z,34.40
2018-12-20T07:05:11.937Z,29.23
2018-12-20T07:07:41.498Z,32.53
2018-12-20T07:10:09.702Z,30.10
2018-12-20T07:12:39.187Z,31.10
2018-12-20T07:15:08.902Z,34.47
2018-12-20T07:17:38.364Z,31.20
2018-12-20T07:20:06.690Z,34.07
2018-12-20T07:22:36.156Z,32.57
2018-12-20T07:25:05.142Z,27.80
2018-12-20T07:27:36.324Z,30.55
2018-12-20T07:30:08.296Z,31.63
2018-12-20T07:32:37.878Z,29.17
2018-12-20T07:35:07.252Z,31.63
2018-12-20T07:37:36.782Z,31.67
2018-12-20T07:40:07.923Z,37.80
2018-12-20T07:42:37.467Z,31.07
2018-12-20T07:45:06.801Z,35.50
2018-12-20T07:47:36.229Z,34.57
2018-12-20T07:50:06.463Z,32.60
2018-12-20T07:52:35.886Z,31.27
2018-12-20T07:55:04.602Z,30.40
2018-12-20T07:57:34.137Z,32.75
2018-12-20T08:00:02.436Z,29.73
2018-12-20T08:02:32.657Z,30.77
2018-12-20T08:05:00.890Z,33.63
2018-12-20T08:07:30.510Z,28.90
2018-12-20T08:09:58.730Z,32.37
2018-12-20T08:12:26.934Z,32.40
2018-12-20T08:14:55.186Z,32.00
2018-12-20T08:17:24.880Z,33.93
2018-12-20T08:19:53.126Z,28.10
2018-12-20T08:22:22.662Z,28.03
2018-12-20T08:24:50.897Z,32.37
2018-12-20T08:27:19.098Z,29.57
2018-12-20T08:29:47.408Z,28.83
2018-12-20T08:32:17.081Z,28.30
2018-12-20T08:34:45.328Z,26.13
2018-12-20T08:37:14.970Z,28.57
2018-12-20T08:39:43.300Z,30.00
2018-12-20T08:42:11.532Z,28.97
2018-12-20T08:44:39.756Z,28.20
2018-12-20T08:47:10.028Z,28.70
2018-12-20T08:49:38.458Z,31.07
2018-12-20T08:52:06.692Z,26.50
2018-12-20T08:54:35.094Z,26.70
2018-12-20T08:57:04.421Z,26.13
2018-12-20T08:59:32.721Z,24.47
2018-12-20T09:02:02.411Z,30.00
2018-12-20T09:04:31.238Z,26.27
2018-12-20T09:07:00.799Z,24.00
2018-12-20T09:09:29.050Z,25.57
2018-12-20T09:11:57.277Z,26.17
2018-12-20T09:14:25.485Z,25.07
2018-12-20T09:17:02.598Z,23.53
2018-12-20T09:19:25.240Z,21.37
2018-12-20T09:21:54.901Z,22.10
2018-12-20T09:24:23.516Z,20.83
2018-12-20T09:26:52.972Z,22.00
2018-12-20T09:29:21.184Z,21.20
2018-12-20T09:31:50.658Z,21.30
2018-12-20T09:34:18.854Z,23.60
2018-12-20T09:36:47.110Z,21.53
2018-12-20T09:39:15.311Z,21.70
2018-12-20T09:41:43.539Z,20.33
2018-12-20T09:44:11.736Z,22.57
2018-12-20T09:46:39.970Z,19.60
2018-12-20T09:49:08.178Z,22.10
2018-12-20T09:51:36.426Z,15.17
2018-12-20T09:54:04.662Z,15.53
2018-12-20T09:56:32.872Z,12.30
2018-12-20T09:59:01.130Z,16.27
2018-12-20T10:01:29.354Z,13.77
2018-12-20T10:03:57.582Z,13.93
2018-12-20T10:06:25.779Z,15.40
2018-12-20T10:08:54.018Z,15.10
2018-12-20T10:11:23.550Z,14.93
2018-12-20T10:13:51.774Z,15.87
2018-12-20T10:16:19.979Z,16.17
2018-12-20T10:18:48.202Z,12.93
2018-12-20T10:21:17.732Z,12.23
2018-12-20T10:23:45.963Z,12.50
2018-12-20T10:26:14.189Z,11.00
2018-12-20T10:28:42.443Z,10.70
2018-12-20T10:31:12.070Z,8.87
2018-12-20T10:33:40.310Z,13.20
2018-12-20T10:36:08.518Z,11.53
2018-12-20T10:38:36.842Z,8.87
2018-12-20T10:41:06.970Z,9.37
2018-12-20T10:43:35.298Z,9.03
2018-12-20T10:46:04.817Z,8.40
2018-12-20T10:48:33.043Z,9.30
2018-12-20T10:51:01.238Z,7.23
2018-12-20T10:53:29.506Z,6.97
2018-12-20T10:55:59.121Z,6.73
2018-12-20T10:58:27.355Z,6.80
2018-12-20T11:04:07.143Z,7.70
2018-12-20T11:06:40.981Z,7.10
2018-12-20T11:09:14.918Z,7.10
2018-12-20T11:11:48.705Z,7.40
2018-12-20T11:14:16.938Z,7.40
2018-12-20T11:16:46.564Z,7.83
2018-12-20T11:19:14.797Z,6.60
2018-12-20T11:21:45.728Z,8.00
2018-12-20T11:24:14.274Z,7.97
2018-12-20T11:26:43.797Z,7.47
2018-12-20T11:29:12.026Z,7.30
2018-12-20T11:31:41.447Z,6.60
2018-12-20T11:34:09.707Z,10.07
2018-12-20T11:36:37.903Z,7.10
2018-12-20T11:39:08.449Z,7.90
2018-12-20T11:41:38.618Z,7.13
2018-12-20T11:44:06.823Z,12.40
2018-12-20T11:46:35.217Z,7.13
2018-12-20T11:49:03.757Z,6.67
2018-12-20T11:51:33.213Z,7.07
2018-12-20T11:54:01.410Z,7.00
2018-12-20T11:56:31.146Z,7.20
2018-12-20T11:58:59.690Z,6.67
2018-12-20T12:01:29.938Z,8.13
2018-12-20T12:03:58.136Z,6.90
2018-12-20T12:06:27.694Z,8.83
2018-12-20T12:08:55.914Z,8.10
2018-12-20T12:11:25.361Z,7.50
2018-12-20T12:13:53.552Z,7.27
2018-12-20T12:16:22.997Z,7.20
2018-12-20T12:18:51.198Z,8.00
2018-12-20T12:21:19.443Z,7.87
2018-12-20T12:23:47.633Z,8.60
2018-12-20T12:26:15.845Z,6.97
2018-12-20T12:28:44.079Z,8.73
2018-12-20T12:31:12.279Z,8.53
2018-12-20T12:33:40.563Z,9.07
2018-12-20T12:36:08.772Z,7.90
2018-12-20T12:38:36.998Z,8.67
2018-12-20T12:41:05.197Z,8.30
2018-12-20T12:43:33.437Z,10.17
2018-12-20T12:46:01.636Z,9.53
2018-12-20T12:48:29.868Z,9.60
2018-12-20T12:50:58.072Z,10.93
2018-12-20T12:53:26.310Z,8.97
2018-12-20T12:55:55.741Z,10.77
2018-12-20T12:58:23.963Z,9.83
2018-12-20T13:00:53.401Z,13.30
2018-12-20T13:03:21.760Z,11.40
2018-12-20T13:05:51.288Z,10.43
2018-12-20T13:08:19.523Z,11.50
2018-12-20T13:10:47.729Z,10.40
2018-12-20T13:13:15.961Z,10.70
2018-12-20T13:15:44.174Z,9.60
2018-12-20T13:18:13.735Z,10.07
2018-12-20T13:20:42.815Z,10.93
2018-12-20T13:23:11.075Z,10.10
2018-12-20T13:25:40.705Z,11.30
2018-12-20T13:28:08.951Z,14.47
2018-12-20T13:30:37.168Z,11.30
2018-12-20T13:33:05.403Z,16.07
2018-12-20T13:35:34.713Z,12.03
2018-12-20T13:38:03.814Z,15.27
2018-12-20T13:40:32.045Z,12.90
2018-12-20T13:43:00.421Z,13.47
2018-12-20T13:45:28.625Z,10.97
2018-12-20T13:47:56.897Z,10.97
2018-12-20T13:50:26.611Z,12.43
2018-12-20T13:52:54.831Z,13.30
2018-12-20T13:55:23.063Z,12.07
2018-12-20T13:57:51.314Z,13.20
2018-12-20T14:00:19.563Z,13.50
2018-12-20T14:02:49.326Z,12.00
2018-12-20T14:05:17.566Z,11.73
2018-12-20T14:07:47.803Z,11.00
2018-12-20T14:10:16.044Z,9.93
2018-12-20T14:12:45.611Z,9.60
2018-12-20T14:15:13.856Z,6.83
2018-12-20T14:17:43.481Z,7.87
2018-12-20T14:20:11.723Z,8.77
2018-12-20T14:22:41.444Z,9.30
2018-12-20T14:25:09.661Z,8.20
2018-12-20T14:27:39.639Z,6.90
2018-12-20T14:30:08.395Z,8.70
2018-12-20T14:32:38.220Z,7.23
2018-12-20T14:35:06.594Z,7.03
2018-12-20T14:37:36.178Z,5.90
2018-12-20T14:40:06.610Z,4.40
2018-12-20T14:42:37.820Z,3.40
2018-12-20T14:45:06.251Z,3.00
2018-12-20T14:47:35.999Z,3.30
2018-12-20T14:50:05.858Z,3.00
2018-12-20T14:52:35.481Z,2.50
2018-12-20T14:55:04.839Z,7.67
2018-12-20T14:57:34.666Z,2.80
2018-12-20T15:00:03.593Z,3.03
2018-12-20T15:02:33.842Z,2.90
2018-12-20T15:05:02.263Z,3.90
2018-12-20T15:07:32.242Z,3.10
2018-12-20T15:10:00.570Z,2.70
2018-12-20T15:12:30.818Z,5.57
2018-12-20T15:14:59.034Z,2.67
2018-12-20T15:17:28.710Z,3.00
2018-12-20T15:19:57.466Z,2.40
2018-12-20T15:22:27.118Z,2.20
2018-12-20T15:24:55.455Z,3.90
2018-12-20T15:27:24.333Z,6.00
2018-12-20T15:29:52.793Z,4.87
2018-12-20T15:32:22.447Z,4.23
2018-12-20T15:34:50.782Z,5.50
2018-12-20T15:37:19.156Z,5.10
2018-12-20T15:39:47.386Z,6.10
2018-12-20T15:42:15.661Z,7.23
2018-12-20T15:44:43.906Z,7.93
2018-12-20T15:47:12.150Z,8.43
2018-12-20T15:49:42.123Z,6.77
2018-12-20T15:52:11.992Z,12.00
2018-12-20T15:54:40.194Z,10.17
2018-12-20T15:57:09.659Z,8.63
2018-12-20T15:59:38.055Z,9.23
2018-12-20T16:02:06.511Z,8.83
2018-12-20T16:04:34.946Z,9.17
2018-12-20T16:07:03.175Z,10.80
2018-12-20T16:09:31.595Z,9.37
2018-12-20T16:12:01.457Z,8.73
2018-12-20T16:14:29.792Z,7.23
2018-12-20T16:16:59.410Z,8.07
2018-12-20T16:19:27.773Z,8.90
2018-12-20T16:21:55.970Z,7.90
2018-12-20T16:24:24.198Z,10.60
2018-12-20T16:26:52.433Z,11.00
2018-12-20T16:29:20.667Z,12.00
2018-12-20T16:31:48.866Z,8.23
2018-12-20T16:34:17.105Z,9.10
2018-12-20T16:36:45.430Z,12.30
2018-12-20T16:39:13.673Z,10.57
2018-12-20T16:41:43.248Z,11.00
2018-12-20T16:44:11.483Z,11.77
2018-12-20T16:46:39.809Z,13.00
2018-12-20T16:49:13.504Z,8.87
2018-12-20T16:51:39.721Z,9.73
2018-12-20T16:54:07.965Z,10.60
2018-12-20T16:56:36.290Z,9.30
2018-12-20T16:59:04.651Z,9.77
2018-12-20T17:01:32.980Z,9.60
2018-12-20T17:04:02.546Z,10.37
2018-12-20T17:06:30.870Z,9.80
2018-12-20T17:08:59.110Z,11.90
2018-12-20T17:11:27.458Z,10.87
2018-12-20T17:13:55.698Z,8.63
2018-12-20T17:16:25.598Z,9.03
2018-12-20T17:18:53.784Z,12.50
2018-12-20T17:21:22.030Z,12.60
2018-12-20T17:23:50.566Z,13.70
2018-12-20T17:26:18.849Z,9.90
2018-12-20T17:28:48.237Z,9.43
2018-12-20T17:31:17.697Z,9.27
2018-12-20T17:33:45.923Z,10.53
2018-12-20T17:36:14.286Z,7.73
2018-12-20T17:38:42.499Z,8.50
2018-12-20T17:41:10.988Z,7.63
2018-12-20T17:43:39.223Z,9.17
2018-12-20T17:46:07.602Z,7.70
2018-12-20T17:48:36.735Z,7.80
2018-12-20T17:51:04.976Z,7.90
2018-12-20T17:53:33.183Z,7.10
2018-12-20T17:56:02.635Z,7.50
2018-12-20T17:58:31.153Z,7.83
2018-12-20T18:00:59.393Z,6.83
2018-12-20T18:03:28.018Z,7.30
2018-12-20T18:05:56.259Z,6.93
2018-12-20T18:08:24.479Z,7.97
2018-12-20T18:10:52.841Z,6.77
2018-12-20T18:13:22.172Z,7.80
2018-12-20T18:15:50.402Z,7.93
2018-12-20T18:18:18.616Z,5.03
2018-12-20T18:20:48.162Z,6.83
2018-12-20T18:23:16.417Z,6.80
2018-12-20T18:25:45.945Z,5.70
2018-12-20T18:28:14.320Z,5.80
2018-12-20T18:30:42.645Z,6.27
2018-12-20T18:33:11.006Z,5.70
2018-12-20T18:35:40.482Z,6.60
2018-12-20T18:38:08.724Z,5.50
2018-12-20T18:40:38.548Z,6.10
2018-12-20T18:43:06.843Z,5.03
2018-12-20T18:45:36.345Z,4.50
2018-12-20T18:48:04.776Z,6.17
2018-12-20T18:50:33.153Z,4.97
2018-12-20T18:53:01.457Z,6.00
2018-12-20T18:55:29.811Z,6.70
2018-12-20T18:57:58.041Z,5.13
2018-12-20T19:00:27.722Z,5.70
2018-12-20T19:02:56.187Z,4.53
2018-12-20T19:05:26.006Z,4.93
2018-12-20T19:07:54.450Z,5.63
2018-12-20T19:10:22.674Z,5.70
2018-12-20T19:12:50.911Z,6.23
2018-12-20T19:15:19.142Z,7.20
2018-12-20T19:17:48.719Z,6.77
2018-12-20T19:20:17.386Z,7.43
2018-12-20T19:22:46.851Z,6.10
2018-12-20T19:25:15.054Z,6.00
2018-12-20T19:27:44.616Z,6.43
2018-12-20T19:30:13.539Z,5.70
2018-12-20T19:32:43.470Z,6.63
2018-12-20T19:35:11.699Z,5.57
2018-12-20T19:37:42.534Z,5.17
2018-12-20T19:40:10.765Z,5.40
2018-12-20T19:42:40.412Z,6.77
2018-12-20T19:45:08.659Z,6.33
2018-12-20T19:47:38.825Z,6.13
2018-12-20T19:50:08.153Z,5.97
2018-12-20T19:52:37.673Z,7.13
2018-12-20T19:55:06.069Z,5.03
2018-12-20T19:57:35.704Z,4.77
2018-12-20T20:00:09.781Z,5.17
2018-12-20T20:02:39.831Z,5.30
2018-12-20T20:05:08.171Z,4.87
2018-12-20T20:07:37.723Z,4.47
2018-12-20T20:10:08.569Z,5.30
2018-12-20T20:12:37.987Z,5.00
2018-12-20T20:15:16.044Z,5.37
2018-12-20T20:17:39.583Z,4.93
2018-12-20T20:20:13.867Z,5.47
2018-12-20T20:22:39.499Z,5.50
2018-12-20T20:25:07.738Z,3.97
2018-12-20T20:27:37.270Z,6.20
2018-12-20T20:30:09.314Z,3.80
2018-12-20T20:32:39.333Z,5.00
2018-12-20T20:35:08.687Z,3.63
2018-12-20T20:37:38.328Z,4.67
2018-12-20T20:40:07.889Z,4.17
2018-12-20T20:42:37.525Z,4.90
2018-12-20T20:45:06.396Z,4.30
2018-12-20T20:47:36.573Z,3.53
2018-12-20T20:50:06.491Z,3.83
2018-12-20T20:52:36.167Z,3.43
2018-12-20T20:55:05.818Z,4.43
2018-12-20T20:57:35.679Z,4.87
2018-12-20T21:00:06.679Z,6.83
2018-12-20T21:02:36.459Z,3.47
2018-12-20T21:05:05.883Z,4.47
2018-12-20T21:07:35.452Z,4.57
2018-12-20T21:10:05.398Z,6.73
2018-12-20T21:12:35.155Z,5.70
2018-12-20T21:15:03.986Z,3.30
2018-12-20T21:17:33.661Z,3.73
2018-12-20T21:20:01.880Z,3.80
2018-12-20T21:22:32.126Z,2.97
2018-12-20T21:25:00.364Z,5.10
2018-12-20T21:27:28.585Z,3.80
2018-12-20T21:29:56.794Z,4.27
2018-12-20T21:32:25.064Z,3.23
2018-12-20T21:34:53.265Z,3.23
2018-12-20T21:37:23.030Z,4.07
2018-12-20T21:39:51.222Z,7.60
2018-12-20T21:42:20.025Z,3.80
2018-12-20T21:44:48.246Z,2.90
2018-12-20T21:47:17.814Z,2.60
2018-12-20T21:49:46.278Z,3.27
2018-12-20T21:52:14.521Z,3.50
2018-12-20T21:54:42.754Z,3.27
2018-12-20T21:57:12.230Z,2.90
2018-12-20T21:59:40.438Z,2.77
2018-12-20T22:02:09.870Z,5.07
2018-12-20T22:04:38.542Z,2.43
2018-12-20T22:07:08.077Z,3.00
2018-12-20T22:09:36.446Z,2.70
2018-12-20T22:12:05.874Z,3.27
2018-12-20T22:14:34.465Z,3.00
2018-12-20T22:17:03.919Z,2.57
2018-12-20T22:19:32.285Z,3.17
2018-12-20T22:22:00.494Z,3.63
2018-12-20T22:24:28.968Z,2.70
2018-12-20T22:26:58.881Z,2.80
2018-12-20T22:29:27.276Z,2.93
2018-12-20T22:31:56.046Z,3.60
2018-12-20T22:34:24.271Z,2.43
2018-12-20T22:36:53.797Z,2.60
2018-12-20T22:39:22.045Z,5.00
2018-12-20T22:41:50.266Z,3.30
2018-12-20T22:44:18.505Z,3.10
2018-12-20T22:46:48.152Z,2.60
2018-12-20T22:49:16.389Z,3.47
2018-12-20T22:51:45.212Z,3.37
2018-12-20T22:54:13.776Z,3.40
2018-12-20T22:56:41.977Z,3.00
2018-12-20T22:59:10.197Z,2.90
2018-12-20T23:01:40.405Z,2.93
2018-12-20T23:04:09.352Z,4.13
2018-12-20T23:06:37.742Z,3.07
2018-12-20T23:09:06.403Z,2.97
2018-12-20T23:11:36.746Z,3.57
2018-12-20T23:14:05.097Z,3.90
2018-12-20T23:16:34.318Z,3.20
2018-12-20T23:19:02.637Z,3.33
2018-12-20T23:21:31.076Z,3.40
2018-12-20T23:23:59.289Z,3.83
2018-12-20T23:26:27.826Z,5.80
2018-12-20T23:28:56.023Z,4.00
2018-12-20T23:31:25.678Z,3.33
2018-12-20T23:33:53.973Z,3.63
2018-12-20T23:36:22.202Z,3.90
2018-12-20T23:38:50.434Z,5.40
2018-12-20T23:41:18.662Z,4.23
2018-12-20T23:43:46.982Z,6.73
2018-12-20T23:46:15.257Z,5.60
2018-12-20T23:48:44.151Z,5.90
2018-12-20T23:51:13.907Z,4.27
2018-12-20T23:53:42.402Z,4.27
2018-12-20T23:56:10.629Z,11.97
2018-12-20T23:58:38.974Z,4.73
